Time;durP1;ratioP1;P1;durP2;ratioP2;P2;SDS_P1;SDS_P2;PMS_P1;PMS_P2;Temp;Humidity;BMP_temperature;BMP_pressure;BME280_temperature;BME280_humidity;BME280_pressure;Samples;Min_cycle;Max_cycle;Signal;HPM_P1;HPM_P2
2022/01/23 00:01:46;;;;;;;31.48;11.60;;;;;;;-2.07;80.15;101889.89;1710888;83;21012;-70
2022/01/23 00:04:06;;;;;;;38.95;20.92;;;;;;;-2.04;80.16;101896.31;1712027;82;21030;-70
2022/01/23 00:06:32;;;;;;;45.15;24.67;;;;;;;-2.00;80.21;101899.22;1711970;83;21059;-70
2022/01/23 00:08:59;;;;;;;31.42;15.13;;;;;;;-1.99;80.24;101903.55;1710995;83;21197;-70
2022/01/23 00:11:27;;;;;;;48.15;26.57;;;;;;;-1.97;80.27;101895.19;1712117;83;21066;-70
2022/01/23 00:19:11;;;;;;;67.35;27.45;;;;;;;-1.88;80.36;101921.03;1710792;83;21027;-70
2022/01/23 00:21:37;;;;;;;60.10;23.75;;;;;;;-1.85;80.37;101914.83;1706327;83;21158;-70
2022/01/23 00:31:59;;;;;;;30.77;13.32;;;;;;;-1.66;80.50;101900.20;1683998;85;21607;-70
2022/01/23 00:34:25;;;;;;;30.52;12.25;;;;;;;-1.61;80.53;101899.12;1683402;85;21085;-70
2022/01/23 00:36:51;;;;;;;40.40;16.87;;;;;;;-1.55;80.57;101898.88;1683543;85;21112;-70
2022/01/23 00:39:17;;;;;;;34.23;13.85;;;;;;;-1.54;80.57;101882.30;1691863;84;21050;-70
2022/01/23 00:41:43;;;;;;;26.33;11.97;;;;;;;-1.54;80.59;101885.36;1683118;83;21101;-70
2022/01/23 00:44:09;;;;;;;27.40;11.48;;;;;;;-1.53;80.63;101889.23;1684117;85;21035;-70
2022/01/23 00:46:38;;;;;;;32.30;15.35;;;;;;;-1.53;80.64;101891.85;1692483;83;21034;-70
2022/01/23 00:51:35;;;;;;;45.45;29.67;;;;;;;-1.54;80.70;101894.06;1683709;85;21069;-70
2022/01/23 00:54:04;;;;;;;58.33;32.65;;;;;;;-1.55;80.70;101894.96;1661568;85;22306;-70
2022/01/23 00:56:30;;;;;;;53.75;30.92;;;;;;;-1.53;80.74;101899.70;1713671;82;21054;-70
2022/01/23 00:58:56;;;;;;;59.23;30.45;;;;;;;-1.52;80.77;101900.11;1693306;83;21156;-70
2022/01/23 01:01:22;;;;;;;49.03;23.52;;;;;;;-1.49;80.78;101904.37;1696830;83;21015;-70
2022/01/23 01:03:48;;;;;;;54.27;21.65;;;;;;;-1.46;80.82;101907.31;1710523;83;21725;-70
2022/01/23 01:06:15;;;;;;;40.17;18.20;;;;;;;-1.47;80.81;101903.84;1710692;83;21526;-70
2022/01/23 01:08:42;;;;;;;47.13;19.30;;;;;;;-1.47;80.84;101897.75;1710433;83;21027;-70
2022/01/23 01:14:19;;;;;;;36.33;15.88;;;;;;;-1.46;80.87;101900.32;1701934;83;21055;-70
2022/01/23 01:35:24;;;;;;;34.38;13.58;;;;;;;-1.52;81.00;101860.02;1684815;85;21070;-70
2022/01/23 01:37:45;;;;;;;31.00;14.23;;;;;;;-1.53;81.01;101864.84;1675249;84;21240;-70
2022/01/23 01:40:11;;;;;;;43.10;18.90;;;;;;;-1.54;81.01;101865.73;1686241;84;21071;-70
2022/01/23 01:42:37;;;;;;;39.58;18.02;;;;;;;-1.53;81.04;101870.93;1685242;85;21059;-70
2022/01/23 01:45:03;;;;;;;41.77;18.30;;;;;;;-1.53;81.06;101867.00;1670591;85;21071;-70
2022/01/23 01:47:29;;;;;;;48.52;20.00;;;;;;;-1.52;81.07;101875.26;1657079;86;21063;-70
2022/01/23 01:49:56;;;;;;;53.98;22.90;;;;;;;-1.51;81.06;101872.16;1663905;83;21166;-70
2022/01/23 01:52:22;;;;;;;45.20;20.25;;;;;;;-1.51;81.08;101876.94;1685407;85;21042;-70
2022/01/23 01:54:58;;;;;;;39.48;16.23;;;;;;;-1.49;81.11;101873.42;1685443;85;21054;-70
2022/01/23 01:57:18;;;;;;;34.08;14.68;;;;;;;-1.46;81.12;101875.92;1713939;83;21074;-70
2022/01/23 02:10:26;;;;;;;38.33;17.48;;;;;;;-1.37;81.17;101899.14;1685555;85;21047;-70
2022/01/23 02:15:45;;;;;;;39.00;14.00;;;;;;;-1.32;81.23;101884.11;1685716;85;21809;-70
2022/01/23 02:18:13;;;;;;;30.88;13.40;;;;;;;-1.32;81.25;101884.11;1712002;83;21047;-70
2022/01/23 02:23:28;;;;;;;37.23;16.48;;;;;;;-1.35;81.27;101896.00;1715657;83;21116;-70
2022/01/23 02:55:33;;;;;;;27.80;12.60;;;;;;;-1.16;81.41;101900.95;1742989;82;21486;-70
2022/01/23 02:57:57;;;;;;;35.03;13.40;;;;;;;-1.17;81.43;101899.23;1742173;82;21067;-70
2022/01/23 03:00:25;;;;;;;32.10;13.28;;;;;;;-1.16;81.41;101893.09;1732696;82;21102;-70
2022/01/23 03:02:53;;;;;;;29.70;12.58;;;;;;;-1.16;81.44;101903.56;1685226;84;21023;-70
2022/01/23 03:05:35;;;;;;;35.52;14.15;;;;;;;-1.18;81.41;101905.38;1713404;83;21059;-70
2022/01/23 03:08:01;;;;;;;33.42;14.35;;;;;;;-1.17;81.39;101912.32;1685158;85;21217;-70
2022/01/23 03:10:26;;;;;;;33.48;14.28;;;;;;;-1.15;81.44;101913.10;1711769;83;21046;-71
2022/01/23 03:15:43;;;;;;;36.35;18.80;;;;;;;-1.17;81.44;101908.39;1713687;83;21075;-70
2022/01/23 03:26:16;;;;;;;28.45;12.40;;;;;;;-1.14;81.50;101899.11;1713417;83;21015;-70
2022/01/23 03:28:39;;;;;;;36.80;12.47;;;;;;;-1.13;81.53;101892.98;1685385;84;21037;-70
2022/01/23 03:31:21;;;;;;;30.37;14.10;;;;;;;-1.15;81.52;101886.93;1712889;83;21464;-70
2022/01/23 03:33:36;;;;;;;27.93;11.88;;;;;;;-1.16;81.53;101883.45;1711548;83;21811;-70
2022/01/23 03:36:03;;;;;;;29.05;12.25;;;;;;;-1.16;81.54;101883.94;1713070;83;21093;-70
2022/01/23 03:38:30;;;;;;;29.15;12.40;;;;;;;-1.14;81.56;101892.57;1713114;83;21037;-70
2022/01/23 03:40:56;;;;;;;29.70;12.85;;;;;;;-1.13;81.57;101884.67;1713493;83;21072;-70
2022/01/23 03:43:28;;;;;;;25.70;12.23;;;;;;;-1.11;81.56;101884.59;1713409;83;21065;-70
2022/01/23 03:50:52;;;;;;;27.52;11.43;;;;;;;-1.10;81.58;101886.31;1713460;83;20942;-70
2022/01/23 03:53:19;;;;;;;26.77;15.38;;;;;;;-1.09;81.59;101884.92;1713141;83;21009;-70
2022/01/23 03:55:45;;;;;;;38.20;22.25;;;;;;;-1.06;81.62;101883.52;1708489;83;21121;-70
2022/01/23 03:58:11;;;;;;;30.12;17.90;;;;;;;-1.03;81.62;101877.30;1700210;83;21531;-70
2022/01/23 04:00:37;;;;;;;51.70;30.15;;;;;;;-1.01;81.65;101883.32;1686079;85;21714;-70
2022/01/23 04:03:03;;;;;;;45.17;26.80;;;;;;;-0.99;81.64;101881.52;1684703;85;21476;-70
2022/01/23 04:05:29;;;;;;;46.77;29.20;;;;;;;-0.98;81.65;101885.81;1684065;85;21031;-70
2022/01/23 04:07:55;;;;;;;51.77;28.40;;;;;;;-0.99;81.67;101885.44;1684680;85;21094;-70
2022/01/23 04:10:23;;;;;;;35.28;21.00;;;;;;;-0.98;81.69;101889.73;1684342;85;21561;-70
2022/01/23 04:15:41;;;;;;;34.50;15.32;;;;;;;-0.95;81.72;101899.27;1713546;83;21050;-70
2022/01/23 04:33:59;;;;;;;53.48;31.97;;;;;;;-0.93;81.83;101927.08;1713406;83;21078;-70
2022/01/23 05:01:06;;;;;;;36.38;18.30;;;;;;;-0.95;81.99;101954.24;1713381;83;21054;-70
2022/01/23 05:06:09;;;;;;;31.85;13.03;;;;;;;-0.95;82.00;101953.76;1713411;83;21039;-70
2022/01/23 05:08:37;;;;;;;27.30;11.30;;;;;;;-0.95;82.01;101948.52;1696231;83;21094;-71
2022/01/23 05:11:06;;;;;;;27.42;10.75;;;;;;;-0.95;82.02;101946.39;1684515;85;21487;-70
2022/01/23 05:13:32;;;;;;;25.23;11.22;;;;;;;-0.95;82.05;101944.59;1672597;83;21629;-70
2022/01/23 05:16:00;;;;;;;25.35;11.73;;;;;;;-0.96;82.05;101935.06;1713174;83;22007;-71
2022/01/23 05:18:26;;;;;;;31.37;14.98;;;;;;;-0.96;82.06;101940.30;1712919;83;21620;-70
2022/01/23 05:21:04;;;;;;;40.92;21.95;;;;;;;-0.95;82.06;101944.59;1713337;83;21570;-70
2022/01/23 05:23:20;;;;;;;45.90;25.05;;;;;;;-0.94;82.07;101943.69;1711388;82;21070;-70
2022/01/23 05:25:47;;;;;;;37.17;19.95;;;;;;;-0.92;82.09;101937.11;1713546;83;21030;-70
2022/01/23 05:28:13;;;;;;;37.35;17.25;;;;;;;-0.89;82.08;101941.77;1713429;83;21178;-70
2022/01/23 05:30:40;;;;;;;32.10;16.97;;;;;;;-0.88;82.11;101942.14;1713377;83;21055;-70
2022/01/23 05:33:06;;;;;;;35.40;17.07;;;;;;;-0.87;82.10;101946.47;1713305;83;21560;-70
2022/01/23 05:35:32;;;;;;;37.60;16.05;;;;;;;-0.85;82.12;101947.28;1658661;86;21101;-70
2022/01/23 05:37:58;;;;;;;37.35;15.88;;;;;;;-0.83;82.15;101944.14;1680604;85;21043;-70
2022/01/23 05:40:27;;;;;;;31.50;13.72;;;;;;;-0.82;82.16;101947.16;1682969;85;21948;-70
2022/01/23 05:42:52;;;;;;;27.32;14.00;;;;;;;-0.80;82.17;101949.25;1676864;85;21078;-70
2022/01/23 05:45:18;;;;;;;33.98;14.35;;;;;;;-0.79;82.17;101950.97;1676586;85;21095;-70
2022/01/23 05:47:44;;;;;;;30.37;19.42;;;;;;;-0.79;82.19;101950.97;1683946;85;21347;-71
2022/01/23 05:50:10;;;;;;;33.75;16.73;;;;;;;-0.78;82.22;101961.85;1678758;85;21063;-70
2022/01/23 05:52:37;;;;;;;29.75;15.65;;;;;;;-0.78;82.23;101957.92;1679972;85;21174;-70
2022/01/23 05:55:04;;;;;;;49.35;30.10;;;;;;;-0.78;82.25;101964.92;1678899;85;21028;-71
2022/01/23 05:57:30;;;;;;;39.95;25.05;;;;;;;-0.79;82.25;101964.06;1656254;86;21511;-70
2022/01/23 05:59:56;;;;;;;36.53;17.42;;;;;;;-0.80;82.25;101960.17;1683307;85;21526;-71
2022/01/23 06:02:22;;;;;;;40.63;24.92;;;;;;;-0.80;82.28;101971.52;1682848;85;21059;-70
2022/01/23 06:04:48;;;;;;;44.77;24.72;;;;;;;-0.79;82.29;101967.99;1683145;85;21124;-71
2022/01/23 06:07:14;;;;;;;37.00;15.75;;;;;;;-0.80;82.30;101974.12;1683013;85;21099;-70
2022/01/23 06:09:41;;;;;;;35.95;17.07;;;;;;;-0.80;82.32;101971.96;1656092;86;21035;-71
2022/01/23 06:12:08;;;;;;;27.77;14.68;;;;;;;-0.82;82.34;101966.80;1657797;85;21146;-71
2022/01/23 06:14:34;;;;;;;35.10;14.30;;;;;;;-0.82;82.36;101965.95;1682812;85;21641;-70
2022/01/23 06:17:00;;;;;;;28.83;13.32;;;;;;;-0.83;82.36;101975.56;1683118;85;22105;-71
2022/01/23 06:19:26;;;;;;;39.38;15.90;;;;;;;-0.83;82.38;101982.11;1682789;85;21036;-70
2022/01/23 06:21:52;;;;;;;41.58;16.35;;;;;;;-0.82;82.40;101975.97;1682242;85;21003;-70
2022/01/23 06:24:26;;;;;;;46.18;16.57;;;;;;;-0.81;82.43;101969.80;1682783;85;21003;-70
2022/01/23 06:26:55;;;;;;;46.20;19.92;;;;;;;-0.80;82.45;101967.58;1679650;84;21126;-70
2022/01/23 06:29:22;;;;;;;55.63;28.60;;;;;;;-0.78;82.45;101970.16;1681568;85;21180;-70
2022/01/23 06:31:48;;;;;;;58.85;31.20;;;;;;;-0.77;82.47;101980.55;1664840;85;21549;-71
2022/01/23 06:34:16;;;;;;;67.03;31.73;;;;;;;-0.74;82.50;101982.23;1681775;85;21524;-70
2022/01/23 06:36:43;;;;;;;47.60;21.75;;;;;;;-0.75;82.52;101976.13;1656717;85;21106;-70
2022/01/23 06:39:11;;;;;;;62.33;25.62;;;;;;;-0.75;82.57;101977.44;1656287;86;21090;-70
2022/01/23 06:41:37;;;;;;;54.95;23.57;;;;;;;-0.72;82.58;101981.70;1684583;85;21328;-70
2022/01/23 06:44:04;;;;;;;68.85;29.27;;;;;;;-0.71;82.63;101996.06;1685795;85;21023;-70
2022/01/23 06:46:31;;;;;;;62.13;29.87;;;;;;;-0.71;82.65;101996.06;1685725;85;21043;-70
2022/01/23 06:48:57;;;;;;;54.83;22.05;;;;;;;-0.71;82.65;101996.06;1685702;85;21059;-70
2022/01/23 06:51:23;;;;;;;55.78;18.82;;;;;;;-0.70;82.69;102008.67;1715679;83;21100;-70
2022/01/23 06:53:49;;;;;;;57.93;20.05;;;;;;;-0.70;82.72;102006.91;1715419;82;21510;-70
2022/01/23 06:56:16;;;;;;;67.03;21.73;;;;;;;-0.69;82.75;102007.31;1715471;83;21600;-70
2022/01/23 06:58:42;;;;;;;63.13;21.33;;;;;;;-0.68;82.77;102010.80;1715525;83;21015;-70
2022/01/23 07:01:08;;;;;;;67.08;21.80;;;;;;;-0.68;82.82;102009.03;1715713;82;21034;-70
2022/01/23 07:03:35;;;;;;;60.92;23.73;;;;;;;-0.67;82.86;102017.75;1715889;83;21098;-70
2022/01/23 07:06:01;;;;;;;76.15;28.40;;;;;;;-0.67;82.90;102029.05;1708744;82;21585;-71
2022/01/23 07:08:27;;;;;;;70.87;29.80;;;;;;;-0.70;82.93;102029.17;1686253;85;21572;-70
2022/01/23 07:10:53;;;;;;;74.32;34.50;;;;;;;-0.68;82.97;102033.91;1686074;85;21114;-70
2022/01/23 07:13:19;;;;;;;76.60;41.65;;;;;;;-0.67;83.01;102030.36;1686424;85;21539;-70
2022/01/23 07:15:47;;;;;;;107.67;48.50;;;;;;;-0.65;83.04;102040.34;1693703;83;21558;-70
2022/01/23 07:18:15;;;;;;;75.37;36.85;;;;;;;-0.63;83.11;102038.50;1715588;83;21081;-70
2022/01/23 07:20:43;;;;;;;82.25;37.83;;;;;;;-0.61;83.12;102038.01;1715572;83;21011;-70
2022/01/23 07:23:09;;;;;;;95.25;43.05;;;;;;;-0.61;83.20;102036.70;1715470;83;21086;-70
2022/01/23 07:25:35;;;;;;;87.80;34.85;;;;;;;-0.60;83.25;102033.14;1715685;83;21083;-70
2022/01/23 07:28:02;;;;;;;74.20;26.48;;;;;;;-0.59;83.30;102035.31;1715731;83;21092;-70
2022/01/23 07:30:48;;;;;;;72.80;24.82;;;;;;;-0.59;83.35;102028.31;1715632;83;21724;-71
2022/01/23 07:33:05;;;;;;;70.03;27.22;;;;;;;-0.57;83.40;102026.95;1712222;83;21058;-70
2022/01/23 07:35:31;;;;;;;69.90;24.27;;;;;;;-0.56;83.45;102028.64;1712808;82;21099;-71
2022/01/23 07:37:57;;;;;;;61.60;23.00;;;;;;;-0.53;83.52;102035.09;1714766;83;21024;-71
2022/01/23 07:40:23;;;;;;;62.73;24.15;;;;;;;-0.52;83.58;102032.41;1714641;83;21048;-71
2022/01/23 07:42:49;;;;;;;60.95;23.02;;;;;;;-0.47;83.63;102030.06;1715084;83;21159;-71
2022/01/23 07:45:15;;;;;;;77.78;26.07;;;;;;;-0.42;83.67;102033.37;1714292;83;21056;-71
2022/01/23 07:47:41;;;;;;;83.20;30.08;;;;;;;-0.39;83.70;102031.94;1715113;83;21590;-71
2022/01/23 07:50:08;;;;;;;86.28;35.50;;;;;;;-0.37;83.78;102037.95;1714639;83;21006;-71
2022/01/23 07:52:36;;;;;;;90.03;47.10;;;;;;;-0.34;83.79;102038.69;1714904;83;21076;-70
2022/01/23 07:55:09;;;;;;;79.82;38.20;;;;;;;-0.32;83.86;102037.34;1715138;83;21080;-70
2022/01/23 07:57:35;;;;;;;77.58;34.73;;;;;;;-0.29;83.93;102051.17;1714663;83;21572;-70
2022/01/23 08:00:01;;;;;;;74.25;28.23;;;;;;;-0.28;83.96;102042.38;1715121;83;21024;-71
2022/01/23 08:02:27;;;;;;;72.50;26.97;;;;;;;-0.24;84.03;102049.20;1714936;83;21021;-70
2022/01/23 08:04:54;;;;;;;62.05;23.57;;;;;;;-0.19;84.08;102052.97;1715344;83;21019;-71
2022/01/23 08:07:31;;;;;;;79.17;35.15;;;;;;;-0.16;84.11;102062.02;1714794;83;21184;-71
2022/01/23 08:09:48;;;;;;;65.83;27.62;;;;;;;-0.13;84.16;102064.51;1712487;83;21090;-70
2022/01/23 08:12:14;;;;;;;73.10;30.82;;;;;;;-0.07;84.22;102072.16;1714966;83;20922;-71
2022/01/23 08:14:40;;;;;;;72.27;29.42;;;;;;;-0.03;84.26;102077.19;1715231;83;21049;-71
2022/01/23 08:17:06;;;;;;;86.20;36.20;;;;;;;0.00;84.30;102086.73;1714998;83;21061;-71
2022/01/23 08:19:32;;;;;;;82.90;33.58;;;;;;;0.06;84.37;102096.11;1715005;82;21136;-71
2022/01/23 08:21:58;;;;;;;56.33;25.62;;;;;;;0.10;84.41;102090.69;1715006;83;21021;-71
2022/01/23 08:24:24;;;;;;;65.15;28.12;;;;;;;0.13;84.46;102091.88;1714835;83;21016;-71
2022/01/23 08:26:50;;;;;;;83.42;37.00;;;;;;;0.13;84.49;102099.73;1715134;83;21078;-71
2022/01/23 08:29:16;;;;;;;88.72;47.38;;;;;;;0.16;84.50;102093.05;1715324;83;21082;-71
2022/01/23 08:31:45;;;;;;;81.70;40.05;;;;;;;0.18;84.55;102099.08;1715356;83;21661;-71
2022/01/23 08:34:11;;;;;;;71.97;38.48;;;;;;;0.23;84.59;102098.45;1682149;84;21098;-70
2022/01/23 08:36:37;;;;;;;84.10;43.50;;;;;;;0.26;84.65;102110.12;1714332;83;21075;-70
2022/01/23 08:39:03;;;;;;;101.55;54.90;;;;;;;0.27;84.70;102110.53;1714441;83;21031;-71
2022/01/23 08:44:14;;;;;;;92.02;43.02;;;;;;;0.31;84.77;102106.01;1715021;83;21087;-71
2022/01/23 08:46:40;;;;;;;93.58;45.33;;;;;;;0.33;84.82;102111.58;1715257;83;21506;-71
2022/01/23 08:49:06;;;;;;;95.47;46.23;;;;;;;0.35;84.86;102115.47;1714988;83;21104;-71
2022/01/23 08:51:33;;;;;;;77.80;36.08;;;;;;;0.39;84.89;102120.95;1715537;83;21045;-71
2022/01/23 08:53:59;;;;;;;72.50;33.40;;;;;;;0.43;84.91;102124.72;1714975;83;21097;-71
2022/01/23 08:56:26;;;;;;;92.08;34.98;;;;;;;0.49;84.96;102125.77;1715377;83;21166;-71
2022/01/23 08:58:52;;;;;;;85.83;38.30;;;;;;;0.53;85.00;102125.66;1714792;83;21063;-71
2022/01/23 09:01:18;;;;;;;109.70;48.95;;;;;;;0.56;85.04;102128.16;1714913;83;21595;-71
2022/01/23 09:03:46;;;;;;;131.75;59.67;;;;;;;0.56;85.07;102124.22;1714901;83;21522;-71
2022/01/23 09:06:12;;;;;;;160.55;71.25;;;;;;;0.57;85.08;102130.70;1715560;83;22247;-71
2022/01/23 09:08:40;;;;;;;164.72;71.90;;;;;;;0.58;85.12;102128.94;1715173;83;20969;-71
2022/01/23 09:11:23;;;;;;;128.95;59.42;;;;;;;0.59;85.15;102122.78;1714363;83;21053;-71
2022/01/23 09:13:54;;;;;;;123.20;54.08;;;;;;;0.63;85.18;102128.30;1683781;85;21650;-72
2022/01/23 09:16:09;;;;;;;142.98;63.25;;;;;;;0.61;85.19;102130.11;1682229;85;21561;-71
2022/01/23 09:18:38;;;;;;;166.88;63.87;;;;;;;0.63;85.24;102129.16;1715026;83;21091;-71
2022/01/23 09:21:04;;;;;;;123.83;50.30;;;;;;;0.65;85.34;102130.39;1715185;83;21148;-71
2022/01/23 09:23:31;;;;;;;113.12;44.93;;;;;;;0.65;85.34;102130.39;1714714;83;21367;-71
2022/01/23 09:25:59;;;;;;;170.20;65.70;;;;;;;0.69;85.33;102135.91;1715043;83;21091;-71
2022/01/23 09:28:31;;;;;;;156.82;59.00;;;;;;;0.73;85.37;102137.49;1699044;83;21599;-71
2022/01/23 09:30:54;;;;;;;144.30;52.65;;;;;;;0.73;85.38;102135.72;1683102;85;21035;-71
2022/01/23 09:33:21;;;;;;;209.12;76.35;;;;;;;0.81;85.41;102136.72;1685197;85;21154;-71
2022/01/23 09:35:47;;;;;;;311.23;124.33;;;;;;;0.89;85.42;102134.59;1677950;85;21532;-71
2022/01/23 09:38:13;;;;;;;230.70;84.30;;;;;;;0.93;85.45;102130.92;1674315;83;21534;-71
2022/01/23 09:40:41;;;;;;;164.35;59.10;;;;;;;1.02;85.48;102133.17;1676834;85;21512;-71
2022/01/23 09:43:17;;;;;;;128.25;46.98;;;;;;;1.08;85.50;102132.89;1677227;85;21060;-72
2022/01/23 09:45:48;;;;;;;136.25;53.45;;;;;;;1.11;85.53;102126.64;1674988;85;21590;-72
2022/01/23 09:48:14;;;;;;;172.10;68.37;;;;;;;1.15;85.55;102127.77;1671082;85;21091;-72
2022/01/23 09:50:40;;;;;;;151.42;61.50;;;;;;;1.27;85.58;102123.72;1655669;85;21047;-72
2022/01/23 09:53:06;;;;;;;134.72;51.10;;;;;;;1.32;85.60;102122.61;1647646;85;21067;-72
2022/01/23 09:55:33;;;;;;;90.30;40.35;;;;;;;1.44;85.64;102124.67;1676621;85;20912;-72
2022/01/23 09:57:59;;;;;;;67.17;28.80;;;;;;;1.56;85.69;102115.84;1677164;85;21154;-72
2022/01/23 10:00:27;;;;;;;63.25;27.22;;;;;;;1.61;85.73;102123.07;1655267;84;21579;-72
2022/01/23 10:02:54;;;;;;;70.03;28.67;;;;;;;1.74;85.76;102112.37;1677065;85;21107;-72
2022/01/23 10:05:21;;;;;;;75.08;34.15;;;;;;;1.90;85.80;102109.42;1675706;85;21040;-72
2022/01/23 10:07:47;;;;;;;69.65;29.30;;;;;;;2.03;85.82;102111.86;1646586;86;22314;-73
2022/01/23 10:10:20;;;;;;;83.80;36.05;;;;;;;2.09;85.84;102110.69;1647157;86;21908;-73
2022/01/23 10:12:49;;;;;;;77.22;39.10;;;;;;;2.08;85.86;102112.92;1648396;85;21099;-73
2022/01/23 10:15:16;;;;;;;76.62;38.08;;;;;;;2.10;85.86;102111.95;1670848;85;22195;-72
2022/01/23 10:17:42;;;;;;;75.20;36.48;;;;;;;2.11;85.86;102111.49;1669345;85;21099;-73
2022/01/23 10:20:09;;;;;;;64.60;29.95;;;;;;;2.09;85.83;102103.66;1707050;83;21043;-72
2022/01/23 10:22:36;;;;;;;64.62;29.00;;;;;;;2.08;85.85;102106.34;1682672;84;21661;-72
2022/01/23 10:25:14;;;;;;;52.40;25.95;;;;;;;2.03;85.84;102106.59;1676765;85;21131;-72
2022/01/23 10:28:13;;;;;;;67.27;29.55;;;;;;;2.01;85.84;102112.38;1677256;85;21559;-72
2022/01/23 10:30:51;;;;;;;61.77;27.53;;;;;;;1.97;85.83;102110.35;1677553;85;21056;-73
2022/01/23 10:33:33;;;;;;;60.08;25.30;;;;;;;1.98;85.81;102111.20;1679591;84;21301;-73
2022/01/23 10:36:09;;;;;;;55.08;26.95;;;;;;;1.99;85.81;102115.55;1679879;85;21818;-73
2022/01/23 10:38:43;;;;;;;60.03;27.30;;;;;;;1.98;85.82;102118.64;1680214;85;21050;-72
2022/01/23 10:49:59;;;;;;;70.72;32.50;;;;;;;2.00;85.81;102117.27;1639051;85;21228;-71
2022/01/23 10:52:34;;;;;;;78.30;35.55;;;;;;;2.03;85.80;102117.11;1657082;86;21051;-71
2022/01/23 10:55:01;;;;;;;93.52;38.90;;;;;;;2.03;85.78;102117.11;1650574;86;21066;-71
2022/01/23 10:57:37;;;;;;;105.47;45.48;;;;;;;2.04;85.79;102110.94;1684574;85;21106;-71
2022/01/23 11:00:06;;;;;;;119.67;48.35;;;;;;;2.01;85.79;102118.95;1704829;82;21379;-71
2022/01/23 11:02:32;;;;;;;122.25;50.65;;;;;;;2.01;85.77;102118.95;1735628;82;21585;-71
2022/01/23 11:05:05;;;;;;;146.13;59.25;;;;;;;2.02;85.80;102119.34;1724339;82;21508;-71
2022/01/23 11:07:33;;;;;;;135.40;60.70;;;;;;;2.03;85.81;102117.11;1697225;83;21120;-71
2022/01/23 11:10:04;;;;;;;158.85;68.85;;;;;;;2.03;85.81;102111.00;1684283;85;21088;-71
2022/01/23 11:17:59;;;;;;;107.12;47.90;;;;;;;2.12;85.85;102104.82;1678204;85;21553;-71
2022/01/23 11:20:43;;;;;;;84.90;39.73;;;;;;;2.14;85.85;102099.04;1683735;85;21084;-71
2022/01/23 11:23:21;;;;;;;89.67;42.15;;;;;;;2.19;85.86;102106.23;1684488;84;21542;-70
2022/01/23 11:26:02;;;;;;;95.30;41.02;;;;;;;2.23;85.87;102102.98;1666209;85;21110;-71
2022/01/23 11:28:45;;;;;;;115.25;51.33;;;;;;;2.29;85.87;102115.38;1631145;88;21364;-71
2022/01/23 11:31:18;;;;;;;91.45;41.05;;;;;;;2.31;85.87;102117.95;1643067;86;21091;-70
2022/01/23 11:33:45;;;;;;;111.37;46.13;;;;;;;2.33;85.87;102126.15;1661787;85;21035;-71
2022/01/23 11:36:11;;;;;;;112.22;45.65;;;;;;;2.35;85.89;102128.27;1712717;83;21094;-71
2022/01/23 11:38:39;;;;;;;83.50;35.50;;;;;;;2.33;85.89;102127.92;1711823;83;21091;-71
2022/01/23 11:55:37;;;;;;;111.20;53.98;;;;;;;2.33;85.90;102135.36;1712298;83;21886;-71
2022/01/23 11:58:04;;;;;;;114.32;57.93;;;;;;;2.37;85.93;102127.71;1693915;83;21058;-71
2022/01/23 12:00:36;;;;;;;95.53;45.05;;;;;;;2.42;85.95;102133.62;1712403;83;21057;-71
2022/01/23 12:03:12;;;;;;;98.78;49.20;;;;;;;2.49;85.98;102133.70;1711982;82;21082;-70
2022/01/23 12:05:41;;;;;;;99.20;47.60;;;;;;;2.51;85.97;102135.78;1714022;82;21498;-70
2022/01/23 12:08:30;;;;;;;83.72;40.05;;;;;;;2.55;86.00;102132.99;1712102;83;22003;-71
2022/01/23 12:16:32;;;;;;;83.10;34.08;;;;;;;2.63;86.02;102138.73;1715089;82;21071;-71
2022/01/23 12:19:18;;;;;;;78.67;36.03;;;;;;;2.63;86.02;102140.06;1710457;83;21036;-71
2022/01/23 12:21:45;;;;;;;86.17;36.50;;;;;;;2.63;86.08;102141.38;1712036;83;21099;-71
2022/01/23 12:24:13;;;;;;;76.90;32.13;;;;;;;2.59;86.08;102139.81;1712576;83;21090;-71
2022/01/23 12:26:39;;;;;;;90.77;40.45;;;;;;;2.59;86.09;102142.45;1711875;83;21642;-70
2022/01/23 12:29:14;;;;;;;79.77;36.77;;;;;;;2.61;86.10;102144.53;1712474;83;20974;-70
2022/01/23 12:31:41;;;;;;;78.42;34.35;;;;;;;2.60;86.11;102144.17;1711988;83;21582;-70
2022/01/23 12:34:07;;;;;;;78.02;33.28;;;;;;;2.60;86.11;102135.80;1716362;82;22011;-71
2022/01/23 12:36:37;;;;;;;99.70;42.53;;;;;;;2.63;86.10;102137.42;1725170;82;21045;-71
2022/01/23 12:39:12;;;;;;;91.12;42.85;;;;;;;2.63;86.13;102132.16;1707979;82;21026;-71
2022/01/23 12:41:53;;;;;;;71.82;35.45;;;;;;;2.66;86.14;102128.91;1679935;84;21087;-71
2022/01/23 12:44:30;;;;;;;82.60;39.30;;;;;;;2.67;86.15;102135.89;1654427;86;21088;-71
2022/01/23 12:47:02;;;;;;;80.90;41.37;;;;;;;2.70;86.16;102142.77;1663395;86;21157;-71
2022/01/23 12:49:38;;;;;;;67.53;33.85;;;;;;;2.71;86.17;102136.59;1665281;84;21083;-71
2022/01/23 12:52:13;;;;;;;83.12;38.80;;;;;;;2.73;86.18;102147.88;1666146;84;21603;-71
2022/01/23 12:54:52;;;;;;;87.00;40.85;;;;;;;2.72;86.19;102143.53;1650067;84;21048;-71
2022/01/23 12:57:41;;;;;;;100.90;44.42;;;;;;;2.71;86.16;102145.31;1663816;84;21036;-71
2022/01/23 13:00:23;;;;;;;108.47;46.70;;;;;;;2.72;86.20;102147.48;1687467;84;39507;-71
2022/01/23 13:02:49;;;;;;;113.83;47.38;;;;;;;2.73;86.19;102145.25;1682854;84;21071;-71
2022/01/23 13:05:15;;;;;;;110.55;44.03;;;;;;;2.71;86.18;102142.68;1649216;86;21571;-71
2022/01/23 13:07:51;;;;;;;100.75;41.73;;;;;;;2.71;86.21;102142.68;1664337;84;21428;-71
2022/01/23 13:13:04;;;;;;;114.03;51.25;;;;;;;2.68;86.24;102148.10;1669875;84;21804;-71
2022/01/23 13:18:20;;;;;;;114.90;49.48;;;;;;;2.68;86.30;102134.08;1663661;86;21046;-71
2022/01/23 13:27:05;;;;;;;133.12;57.48;;;;;;;2.66;86.32;102132.86;1691218;84;22089;-71
2022/01/23 13:30:14;;;;;;;124.80;56.20;;;;;;;2.65;86.32;102136.41;1678033;84;22299;-70
2022/01/23 13:31:48;;;;;;;150.35;63.00;;;;;;;2.65;86.34;102139.50;1646645;86;21063;-71
2022/01/23 13:34:48;;;;;;;146.05;59.25;;;;;;;2.69;86.33;102143.69;1671120;84;21083;-70
2022/01/23 13:37:21;;;;;;;126.62;55.48;;;;;;;2.68;86.33;102138.03;1662064;86;21134;-70
2022/01/23 13:40:04;;;;;;;133.72;55.52;;;;;;;2.69;86.38;102145.87;1680165;83;21146;-70
2022/01/23 13:51:18;;;;;;;162.18;74.00;;;;;;;2.63;86.43;102145.33;1667989;84;21126;-71
2022/01/23 13:59:34;;;;;;;174.38;71.47;;;;;;;2.67;86.49;102162.69;1642614;86;21102;-70
2022/01/23 14:02:15;;;;;;;235.28;81.45;;;;;;;2.67;86.50;102160.91;1637283;86;21117;-70
2022/01/23 14:04:39;;;;;;;305.27;108.83;;;;;;;2.66;86.52;102161.83;1623230;88;21029;-70
2022/01/23 14:07:05;;;;;;;475.83;187.55;;;;;;;2.69;86.54;102162.13;1624765;88;21211;-72
2022/01/23 14:09:43;;;;;;;388.57;153.05;;;;;;;2.71;86.54;102170.34;1603635;88;21110;-72
2022/01/23 14:12:15;;;;;;;171.87;61.80;;;;;;;2.75;86.56;102175.84;1642394;86;21569;-70
2022/01/23 14:15:05;;;;;;;129.85;52.58;;;;;;;2.72;86.58;102185.68;1624875;88;21543;-70
2022/01/23 14:17:32;;;;;;;173.72;72.72;;;;;;;2.67;86.61;102183.75;1623357;88;21550;-70
2022/01/23 14:20:04;;;;;;;141.25;59.35;;;;;;;2.66;86.64;102180.72;1623259;88;21228;-71
2022/01/23 14:22:34;;;;;;;119.45;46.45;;;;;;;2.64;86.66;102172.06;1622870;88;21803;-71
2022/01/23 14:25:20;;;;;;;97.90;39.05;;;;;;;2.56;86.64;102173.75;1623479;88;21094;-70
2022/01/23 14:28:10;;;;;;;132.85;67.00;;;;;;;2.53;86.67;102183.94;1638700;86;21091;-78
2022/01/23 14:30:45;;;;;;;153.70;78.47;;;;;;;2.53;86.69;102185.26;1633283;86;21085;-75
2022/01/23 14:33:18;;;;;;;135.12;63.42;;;;;;;2.57;86.68;102194.36;1625450;86;21223;-75
2022/01/23 14:35:44;;;;;;;115.72;47.10;;;;;;;2.58;86.72;102188.14;1621226;87;21575;-75
2022/01/23 14:38:24;;;;;;;108.15;45.03;;;;;;;2.58;86.72;102176.28;1638496;86;21565;-74
2022/01/23 14:40:58;;;;;;;116.28;44.13;;;;;;;2.52;86.74;102176.14;1599203;88;28883;-75
2022/01/23 14:43:39;;;;;;;103.10;44.55;;;;;;;2.49;86.74;102179.78;1642747;86;21586;-73
2022/01/23 14:46:09;;;;;;;118.57;47.17;;;;;;;2.43;86.74;102177.42;1644175;85;21630;-73
2022/01/23 14:48:44;;;;;;;103.97;41.67;;;;;;;2.42;86.73;102170.48;1626457;86;21514;-73